Time;durP1;ratioP1;P1;durP2;ratioP2;P2;SDS_P1;SDS_P2;PMS_P1;PMS_P2;Temp;Humidity;BMP_temperature;BMP_pressure;BME280_temperature;BME280_humidity;BME280_pressure;Samples;Min_cycle;Max_cycle;Signal;HPM_P1;HPM_P2
2022/02/10 00:20:34;;;;;;;;;;;4.40;99.90;;;;;;5059704;28;19920;-75
2022/02/10 00:36:12;;;;;;;;;;;4.30;99.90;;;;;;5070954;28;20011;-70
2022/02/10 00:38:44;;;;;;;;;;;4.30;99.90;;;;;;5081781;28;19913;-70
2022/02/10 00:41:09;;;;;;;;;;;4.30;99.90;;;;;;5072824;28;19920;-72
2022/02/10 00:43:35;;;;;;;;;;;4.20;99.90;;;;;;5082816;28;19916;-75
2022/02/10 00:46:01;;;;;;;;;;;4.30;99.90;;;;;;5061710;28;20384;-74
2022/02/10 00:48:26;;;;;;;;;;;4.30;99.90;;;;;;5074365;28;19967;-73
2022/02/10 00:50:52;;;;;;;;;;;4.30;99.90;;;;;;5057997;28;20018;-71
2022/02/10 00:55:45;;;;;;;;;;;4.20;99.90;;;;;;5063509;28;19931;-72
2022/02/10 00:58:19;;;;;;;;;;;4.10;99.90;;;;;;5069570;28;19991;-71
2022/02/10 01:30:22;;;;;;;;;;;4.00;99.90;;;;;;5060373;28;20342;-71
2022/02/10 01:32:51;;;;;;;;;;;4.00;99.90;;;;;;5071892;28;19952;-71
2022/02/10 01:35:21;;;;;;;;;;;4.10;99.90;;;;;;5067606;28;19923;-75
2022/02/10 01:37:47;;;;;;;;;;;4.10;99.90;;;;;;5064426;28;19912;-73
2022/02/10 01:40:35;;;;;;;;;;;4.00;99.90;;;;;;5059999;28;19952;-75
2022/02/10 02:05:17;;;;;;;;;;;3.80;99.90;;;;;;5058573;28;19977;-74
2022/02/10 02:07:42;;;;;;;;;;;3.80;99.90;;;;;;5051038;28;19920;-73
2022/02/10 02:10:08;;;;;;;;;;;3.80;99.90;;;;;;5051905;28;19912;-77
2022/02/10 02:12:33;;;;;;;;;;;3.90;99.90;;;;;;5067892;28;19924;-71
2022/02/10 02:14:59;;;;;;;;;;;3.90;99.90;;;;;;5060976;28;19964;-71
2022/02/10 02:17:24;;;;;;;;;;;3.90;99.90;;;;;;5053117;28;19909;-75
2022/02/10 02:19:50;;;;;;;;;;;3.90;99.90;;;;;;5057251;28;20517;-74
2022/02/10 02:22:18;;;;;;;;;;;3.90;99.90;;;;;;5056277;28;19936;-70
2022/02/10 02:24:44;;;;;;;;;;;3.90;99.90;;;;;;5058719;28;19913;-71
2022/02/10 02:27:16;;;;;;;;;;;4.00;99.90;;;;;;5066451;28;20003;-71
2022/02/10 02:29:47;;;;;;;;;;;4.00;99.90;;;;;;5066344;28;19912;-73
2022/02/10 02:32:23;;;;;;;;;;;4.00;99.90;;;;;;5058034;28;19909;-71
2022/02/10 03:07:33;;;;;;;;;;;3.80;99.90;;;;;;5062715;28;19912;-73
2022/02/10 03:12:39;;;;;;;;;;;3.60;99.90;;;;;;5058050;28;19937;-70
2022/02/10 03:15:10;;;;;;;;;;;3.60;99.90;;;;;;5065754;28;19924;-72
2022/02/10 04:16:53;;;;;;;;;;;3.50;99.90;;;;;;5057762;28;20313;-71
2022/02/10 04:30:02;;;;;;;;;;;3.50;99.90;;;;;;5059116;28;19912;-72
2022/02/10 04:32:40;;;;;;;;;;;3.50;99.90;;;;;;5055024;28;20244;-72
2022/02/10 04:43:39;;;;;;;;;;;3.40;99.90;;;;;;5060880;28;19913;-70
2022/02/10 05:16:47;;;;;;;;;;;3.60;99.90;;;;;;5058065;28;19916;-73
2022/02/10 05:34:13;;;;;;;;;;;3.60;99.90;;;;;;5054910;28;20003;-70
2022/02/10 05:36:42;;;;;;;;;;;3.60;99.90;;;;;;5061503;28;19916;-75
2022/02/10 05:39:15;;;;;;;;;;;3.70;99.90;;;;;;5067253;28;19919;-72
2022/02/10 05:44:34;;;;;;;;;;;3.70;99.90;;;;;;5078173;28;20012;-72
2022/02/10 05:58:11;;;;;;;;;;;3.70;99.90;;;;;;5062997;28;20433;-73
2022/02/10 06:00:54;;;;;;;;;;;3.70;99.90;;;;;;5049892;28;19920;-71
2022/02/10 06:42:43;;;;;;;;;;;4.00;99.90;;;;;;5054641;28;19913;-73
2022/02/10 06:51:40;;;;;;;;;;;4.20;99.90;;;;;;5061036;28;20354;-75
2022/02/10 07:13:08;;;;;;;;;;;4.70;99.90;;;;;;5052967;28;19913;-71
2022/02/10 07:15:56;;;;;;;;;;;4.80;99.90;;;;;;5050309;28;19921;-70
2022/02/10 07:51:15;;;;;;;;;;;6.10;99.90;;;;;;5057414;28;19952;-71
2022/02/10 07:59:18;;;;;;;;;;;6.30;99.90;;;;;;5063814;28;19927;-72
2022/02/10 09:47:33;;;;;;;;;;;10.70;99.90;;;;;;5067130;28;20027;-71
2022/02/10 09:57:54;;;;;;;;;;;11.80;99.90;;;;;;5075301;28;20027;-69
2022/02/10 10:00:36;;;;;;;;;;;11.80;99.90;;;;;;5058328;28;20286;-70
2022/02/10 10:03:07;;;;;;;;;;;11.60;99.90;;;;;;5106698;28;19987;-72
2022/02/10 10:05:40;;;;;;;;;;;11.30;99.90;;;;;;5059777;28;19912;-69
2022/02/10 10:24:19;;;;;;;;;;;10.60;99.90;;;;;;5067093;28;19924;-69
2022/02/10 10:56:37;;;;;;;;;;;9.90;99.90;;;;;;5063204;28;19968;-73
2022/02/10 11:37:41;;;;;;;;;;;10.80;99.90;;;;;;5071032;28;19982;-71
2022/02/10 11:40:13;;;;;;;;;;;10.70;99.90;;;;;;5067392;28;19913;-70
2022/02/10 11:42:47;;;;;;;;;;;10.60;99.90;;;;;;5068157;28;20388;-70
2022/02/10 11:48:30;;;;;;;;;;;10.70;99.90;;;;;;5068870;28;20003;-71
2022/02/10 14:14:34;;;;;;;;;;;12.70;99.90;;;;;;5070604;28;20000;-70
2022/02/10 14:17:07;;;;;;;;;;;12.70;99.90;;;;;;5068313;28;19947;-70
2022/02/10 14:22:26;;;;;;;;;;;12.50;99.90;;;;;;5067102;28;19912;-71
2022/02/10 14:27:37;;;;;;;;;;;12.20;99.90;;;;;;5053308;28;19966;-71
2022/02/10 14:30:03;;;;;;;;;;;12.10;99.90;;;;;;5070980;28;20394;-72
2022/02/10 14:32:34;;;;;;;;;;;12.00;99.90;;;;;;5071608;28;19912;-71
2022/02/10 14:35:10;;;;;;;;;;;11.90;99.90;;;;;;5065204;28;19921;-71
2022/02/10 14:38:05;;;;;;;;;;;11.90;99.90;;;;;;5054718;28;19939;-71
2022/02/10 16:19:18;;;;;;;;;;;11.20;99.90;;;;;;5069231;28;19913;-72
2022/02/10 16:21:56;;;;;;;;;;;11.20;99.90;;;;;;5066875;28;19915;-72
2022/02/10 16:24:30;;;;;;;;;;;11.20;99.90;;;;;;5069092;28;19928;-72
2022/02/10 16:26:58;;;;;;;;;;;11.20;99.90;;;;;;5078489;28;19912;-71
2022/02/10 16:29:25;;;;;;;;;;;11.30;99.90;;;;;;5090974;28;19909;-71
2022/02/10 16:31:51;;;;;;;;;;;11.20;99.90;;;;;;5080607;28;19912;-72
2022/02/10 16:34:17;;;;;;;;;;;11.20;99.90;;;;;;5073136;28;20391;-72
2022/02/10 16:36:43;;;;;;;;;;;11.20;99.90;;;;;;5067188;28;19913;-74
2022/02/10 16:39:08;;;;;;;;;;;11.10;99.90;;;;;;5082524;28;19927;-71
2022/02/10 16:41:34;;;;;;;;;;;11.10;99.90;;;;;;5070572;28;19920;-72
2022/02/10 16:44:00;;;;;;;;;;;11.00;99.90;;;;;;5063668;28;19952;-70
2022/02/10 16:46:26;;;;;;;;;;;11.00;99.90;;;;;;5063097;28;19920;-71
2022/02/10 16:48:51;;;;;;;;;;;10.90;99.90;;;;;;5059647;28;20271;-69
2022/02/10 16:51:19;;;;;;;;;;;10.80;99.90;;;;;;5059112;28;19959;-72
2022/02/10 16:53:50;;;;;;;;;;;10.80;99.90;;;;;;5059049;28;19916;-70
2022/02/10 16:56:21;;;;;;;;;;;10.70;99.90;;;;;;5060261;28;20011;-72
2022/02/10 16:59:00;;;;;;;;;;;10.70;99.90;;;;;;5069609;28;20238;-70
2022/02/10 17:04:56;;;;;;;;;;;10.80;99.90;;;;;;5058253;28;19960;-69
2022/02/10 17:15:47;;;;;;;;;;;11.00;99.90;;;;;;5060481;28;20019;-73
2022/02/10 17:25:42;;;;;;;;;;;10.90;99.90;;;;;;5063618;28;20401;-72
2022/02/10 17:28:10;;;;;;;;;;;10.90;99.90;;;;;;5075841;28;20011;-70
2022/02/10 17:31:02;;;;;;;;;;;10.90;99.90;;;;;;5058419;28;19920;-69
2022/02/10 17:36:06;;;;;;;;;;;10.90;99.90;;;;;;5050588;28;19971;-71
2022/02/10 17:46:54;;;;;;;;;;;10.90;99.90;;;;;;5057820;28;19924;-71
2022/02/10 17:54:35;;;;;;;;;;;11.00;99.90;;;;;;5062812;28;19912;-72
2022/02/10 17:57:01;;;;;;;;;;;11.20;99.90;;;;;;5060665;28;19917;-72
2022/02/10 17:59:28;;;;;;;;;;;11.40;99.90;;;;;;5061520;28;19916;-72
2022/02/10 18:01:53;;;;;;;;;;;11.40;99.90;;;;;;5059085;28;19916;-71
2022/02/10 18:04:20;;;;;;;;;;;11.20;99.90;;;;;;5063179;28;19924;-71
2022/02/10 18:06:48;;;;;;;;;;;11.20;99.90;;;;;;5062727;28;19966;-72
2022/02/10 18:14:25;;;;;;;;;;;11.30;99.90;;;;;;5070614;28;19923;-71
2022/02/10 18:16:55;;;;;;;;;;;11.40;99.90;;;;;;5074356;28;19950;-72
2022/02/10 18:19:29;;;;;;;;;;;11.30;99.90;;;;;;5074252;28;19920;-73
2022/02/10 18:54:19;;;;;;;;;;;10.80;99.90;;;;;;5061673;28;19908;-71
2022/02/10 19:09:45;;;;;;;;;;;10.80;99.90;;;;;;5069886;28;19920;-71
2022/02/10 19:12:17;;;;;;;;;;;10.90;99.90;;;;;;5059250;28;19917;-73
2022/02/10 19:14:52;;;;;;;;;;;10.90;99.90;;;;;;5090856;28;19935;-71
2022/02/10 19:17:18;;;;;;;;;;;10.90;99.90;;;;;;5087630;28;19917;-72
2022/02/10 19:19:43;;;;;;;;;;;10.80;99.90;;;;;;5092983;28;19913;-71
2022/02/10 19:22:09;;;;;;;;;;;10.70;99.90;;;;;;5067599;28;19922;-74
2022/02/10 19:24:35;;;;;;;;;;;10.70;99.90;;;;;;5063634;28;20059;-73
2022/02/10 19:27:00;;;;;;;;;;;10.70;99.90;;;;;;5086536;28;20342;-72
2022/02/10 19:29:26;;;;;;;;;;;10.60;99.90;;;;;;5069490;28;19916;-71
2022/02/10 19:31:53;;;;;;;;;;;10.70;99.90;;;;;;5062932;28;19913;-72
2022/02/10 19:34:19;;;;;;;;;;;10.70;99.90;;;;;;5061780;28;20007;-72
2022/02/10 19:36:45;;;;;;;;;;;10.60;99.90;;;;;;5075223;28;20000;-71
2022/02/10 19:39:15;;;;;;;;;;;10.60;99.90;;;;;;5066998;28;20022;-72
2022/02/10 19:41:43;;;;;;;;;;;10.50;99.90;;;;;;5072200;28;19919;-72
2022/02/10 19:44:09;;;;;;;;;;;10.50;99.90;;;;;;5073430;28;19909;-73
2022/02/10 19:46:35;;;;;;;;;;;10.50;99.90;;;;;;5068415;28;19920;-71
2022/02/10 19:49:01;;;;;;;;;;;10.50;99.90;;;;;;5080811;28;19913;-72
2022/02/10 19:51:26;;;;;;;;;;;10.50;99.90;;;;;;5065102;28;19913;-72
2022/02/10 19:53:55;;;;;;;;;;;10.60;99.90;;;;;;5067194;28;20011;-73
2022/02/10 19:56:21;;;;;;;;;;;10.60;99.90;;;;;;5071561;28;19925;-71
2022/02/10 19:58:46;;;;;;;;;;;10.60;99.90;;;;;;5073148;28;19915;-72
2022/02/10 20:01:12;;;;;;;;;;;10.60;99.90;;;;;;5069628;28;19958;-71
2022/02/10 20:03:40;;;;;;;;;;;10.70;99.90;;;;;;5072053;28;20255;-71
2022/02/10 20:06:05;;;;;;;;;;;10.60;99.90;;;;;;5061979;28;19912;-73
2022/02/10 20:08:32;;;;;;;;;;;10.60;99.90;;;;;;5070192;28;20401;-73
2022/02/10 20:10:57;;;;;;;;;;;10.60;99.90;;;;;;5072519;28;19920;-74
2022/02/10 20:13:30;;;;;;;;;;;10.80;99.90;;;;;;5088062;28;19966;-71
2022/02/10 20:15:58;;;;;;;;;;;10.70;99.90;;;;;;5065385;28;19916;-73
2022/02/10 20:18:24;;;;;;;;;;;10.60;99.90;;;;;;5091705;28;19908;-71
2022/02/10 20:20:53;;;;;;;;;;;10.60;99.90;;;;;;5087829;28;19923;-72
2022/02/10 20:23:19;;;;;;;;;;;10.60;99.90;;;;;;5065760;28;19916;-75
2022/02/10 20:25:45;;;;;;;;;;;10.60;99.90;;;;;;5065231;28;19917;-73
2022/02/10 20:28:12;;;;;;;;;;;10.60;99.90;;;;;;5065116;28;19916;-71
2022/02/10 20:30:38;;;;;;;;;;;10.50;99.90;;;;;;5077485;28;19912;-72
2022/02/10 20:33:04;;;;;;;;;;;10.50;99.90;;;;;;5091633;28;19963;-72
2022/02/10 20:35:30;;;;;;;;;;;10.30;99.90;;;;;;5080431;28;19971;-69
2022/02/10 20:38:00;;;;;;;;;;;10.20;99.90;;;;;;5064569;28;19934;-72
2022/02/10 20:40:26;;;;;;;;;;;10.20;99.90;;;;;;5066868;28;19913;-73
2022/02/10 20:42:55;;;;;;;;;;;10.10;99.90;;;;;;5061378;28;20046;-70
2022/02/10 20:45:21;;;;;;;;;;;10.00;99.90;;;;;;5060541;28;20382;-72
2022/02/10 20:47:46;;;;;;;;;;;10.00;99.90;;;;;;5068383;28;20012;-72
2022/02/10 20:50:12;;;;;;;;;;;9.90;99.90;;;;;;5070434;28;20392;-72
2022/02/10 20:52:37;;;;;;;;;;;9.90;99.90;;;;;;5064839;28;19950;-71
2022/02/10 20:55:03;;;;;;;;;;;9.90;99.90;;;;;;5068073;28;19916;-72
2022/02/10 20:57:29;;;;;;;;;;;9.90;99.90;;;;;;5073525;28;19948;-72
2022/02/10 20:59:55;;;;;;;;;;;9.80;99.90;;;;;;5083833;28;19916;-72
2022/02/10 21:02:29;;;;;;;;;;;9.70;99.90;;;;;;5064259;28;19959;-71
2022/02/10 21:05:05;;;;;;;;;;;9.70;99.90;;;;;;5070525;28;20007;-72
2022/02/10 21:07:40;;;;;;;;;;;9.60;99.90;;;;;;5073289;28;19920;-72
2022/02/10 21:10:11;;;;;;;;;;;9.60;99.90;;;;;;5074724;28;19917;-72
2022/02/10 21:12:39;;;;;;;;;;;9.60;99.90;;;;;;5064832;28;19921;-73
2022/02/10 21:15:09;;;;;;;;;;;9.70;99.90;;;;;;5064672;28;19913;-72
2022/02/10 21:17:35;;;;;;;;;;;9.60;99.90;;;;;;5072209;28;20084;-71
2022/02/10 21:20:03;;;;;;;;;;;9.60;99.90;;;;;;5082637;28;19913;-70
2022/02/10 21:22:32;;;;;;;;;;;9.60;99.90;;;;;;5069337;28;19920;-71
2022/02/10 21:25:10;;;;;;;;;;;9.70;99.90;;;;;;5070131;28;19921;-73
2022/02/10 21:30:06;;;;;;;;;;;9.60;99.90;;;;;;5060251;28;19912;-72
2022/02/10 21:32:37;;;;;;;;;;;9.70;99.90;;;;;;5057094;28;20286;-72
2022/02/10 21:37:32;;;;;;;;;;;9.60;99.90;;;;;;5060743;28;20369;-73
2022/02/10 21:40:14;;;;;;;;;;;9.60;99.90;;;;;;5063285;28;20327;-71
2022/02/10 22:04:25;;;;;;;;;;;9.40;99.90;;;;;;5061683;28;19927;-72
2022/02/10 22:09:34;;;;;;;;;;;9.50;99.90;;;;;;5069425;28;19950;-71
2022/02/10 22:20:06;;;;;;;;;;;9.50;99.90;;;;;;5066214;28;20212;-71
2022/02/10 22:22:36;;;;;;;;;;;9.50;99.90;;;;;;5070497;28;19919;-71
2022/02/10 22:25:07;;;;;;;;;;;9.50;99.90;;;;;;5081657;28;19956;-72
2022/02/10 22:27:37;;;;;;;;;;;9.50;99.90;;;;;;5059340;28;19913;-70
2022/02/10 22:30:10;;;;;;;;;;;9.60;99.90;;;;;;5057016;28;19919;-74
2022/02/10 22:32:52;;;;;;;;;;;9.50;99.90;;;;;;5057300;28;20351;-71
2022/02/10 22:35:17;;;;;;;;;;;9.50;99.90;;;;;;5057648;28;19923;-70
2022/02/10 22:37:56;;;;;;;;;;;9.40;99.90;;;;;;5060441;28;20003;-72
2022/02/10 22:43:27;;;;;;;;;;;9.40;99.90;;;;;;4981528;28;19977;-73
2022/02/10 22:45:52;;;;;;;;;;;9.40;99.90;;;;;;4993639;28;19996;-72
2022/02/10 22:48:18;;;;;;;;;;;9.40;99.90;;;;;;5014553;28;20366;-71
2022/02/10 22:50:50;;;;;;;;;;;9.40;99.90;;;;;;5061879;28;19908;-72
2022/02/10 22:53:16;;;;;;;;;;;9.40;99.90;;;;;;5074902;28;19917;-70
2022/02/10 22:55:48;;;;;;;;;;;9.40;99.90;;;;;;5053557;28;19940;-74
2022/02/10 22:58:14;;;;;;;;;;;9.40;99.90;;;;;;5072217;28;19984;-70
2022/02/10 23:00:49;;;;;;;;;;;9.40;99.90;;;;;;5085875;28;19951;-70
2022/02/10 23:03:16;;;;;;;;;;;9.40;99.90;;;;;;5065535;28;19913;-71
2022/02/10 23:05:42;;;;;;;;;;;9.40;99.90;;;;;;5071887;28;19943;-70
2022/02/10 23:08:09;;;;;;;;;;;9.50;99.90;;;;;;5077840;28;19912;-71
2022/02/10 23:10:42;;;;;;;;;;;9.60;99.90;;;;;;5060884;28;19936;-73
2022/02/10 23:13:08;;;;;;;;;;;9.50;99.90;;;;;;5061608;28;20286;-71
2022/02/10 23:15:38;;;;;;;;;;;9.40;99.90;;;;;;5075414;28;19923;-71
2022/02/10 23:18:06;;;;;;;;;;;9.40;99.90;;;;;;5059226;28;20339;-71
2022/02/10 23:20:32;;;;;;;;;;;9.40;99.90;;;;;;5059363;28;19909;-71
2022/02/10 23:22:57;;;;;;;;;;;9.40;99.90;;;;;;5054591;28;20517;-70
2022/02/10 23:25:24;;;;;;;;;;;9.50;99.90;;;;;;5067533;28;19909;-71
2022/02/10 23:27:50;;;;;;;;;;;9.40;99.90;;;;;;5062993;28;19917;-72
2022/02/10 23:30:18;;;;;;;;;;;9.20;99.90;;;;;;5061498;28;20236;-71
2022/02/10 23:32:44;;;;;;;;;;;9.20;99.90;;;;;;5061517;28;19919;-70
2022/02/10 23:35:28;;;;;;;;;;;9.20;99.90;;;;;;5057164;28;19913;-71
2022/02/10 23:37:54;;;;;;;;;;;9.10;99.90;;;;;;5056958;28;19909;-71
2022/02/10 23:40:19;;;;;;;;;;;9.10;99.90;;;;;;5060621;28;19917;-70
2022/02/10 23:42:45;;;;;;;;;;;9.10;99.90;;;;;;5066211;28;19917;-72
2022/02/10 23:45:18;;;;;;;;;;;9.20;99.90;;;;;;5065585;28;20004;-69
2022/02/10 23:47:43;;;;;;;;;;;9.20;99.90;;;;;;5074284;28;20007;-70
2022/02/10 23:50:12;;;;;;;;;;;9.20;99.90;;;;;;5060848;28;20008;-70
2022/02/10 23:52:37;;;;;;;;;;;9.20;99.90;;;;;;5080671;28;20358;-70
2022/02/10 23:55:10;;;;;;;;;;;9.20;99.90;;;;;;5066894;28;20026;-71
2022/02/10 23:58:29;;;;;;;;;;;9.30;99.90;;;;;;5067599;28;19909;-71
